Time;durP1;ratioP1;P1;durP2;ratioP2;P2;SDS_P1;SDS_P2;PMS_P1;PMS_P2;Temp;Humidity;BMP_temperature;BMP_pressure;BME280_temperature;BME280_humidity;BME280_pressure;Samples;Min_cycle;Max_cycle;Signal;HPM_P1;HPM_P2
2023/02/08 00:00:00;;;;;;;4.4;4.3;;;;;;;-0.8;100.0;103670;;;;
2023/02/08 00:01:05;;;;;;;4.4;4.3;;;;;;;-0.9;100.0;103670;;;;
2023/02/08 00:02:00;;;;;;;4.4;4.3;;;;;;;-0.9;100.0;103670;;;;
2023/02/08 00:03:00;;;;;;;4.4;4.3;;;;;;;-1.0;100.0;103670;;;;
2023/02/08 00:04:00;;;;;;;4.4;4.3;;;;;;;-1.0;100.0;103670;;;;
2023/02/08 00:05:00;;;;;;;4.4;4.3;;;;;;;-0.9;100.0;103670;;;;
2023/02/08 00:06:00;;;;;;;4.4;4.3;;;;;;;-0.9;100.0;103670;;;;
2023/02/08 00:07:00;;;;;;;4.4;4.3;;;;;;;-0.9;100.0;103670;;;;
2023/02/08 00:08:00;;;;;;;4.4;4.3;;;;;;;-0.9;100.0;103670;;;;
2023/02/08 00:09:01;;;;;;;4.4;4.3;;;;;;;-0.9;100.0;103670;;;;
2023/02/08 00:10:03;;;;;;;4.4;4.3;;;;;;;-0.9;100.0;103670;;;;
2023/02/08 00:11:00;;;;;;;4.4;4.3;;;;;;;-0.9;100.0;103670;;;;
2023/02/08 00:12:00;;;;;;;4.4;4.3;;;;;;;-0.9;100.0;103670;;;;
2023/02/08 00:13:00;;;;;;;4.4;4.3;;;;;;;-1.0;100.0;103670;;;;
2023/02/08 00:14:00;;;;;;;3.6;3.5;;;;;;;-1.0;100.0;103670;;;;
2023/02/08 00:15:00;;;;;;;3.6;3.5;;;;;;;-1.1;100.0;103670;;;;
2023/02/08 00:16:00;;;;;;;3.6;3.5;;;;;;;-1.1;100.0;103670;;;;
2023/02/08 00:17:00;;;;;;;3.6;3.5;;;;;;;-1.0;100.0;103660;;;;
2023/02/08 00:18:00;;;;;;;3.6;3.5;;;;;;;-1.0;100.0;103660;;;;
2023/02/08 00:19:00;;;;;;;3.6;3.5;;;;;;;-1.0;100.0;103660;;;;
2023/02/08 00:20:00;;;;;;;3.6;3.5;;;;;;;-1.0;100.0;103660;;;;
2023/02/08 00:21:00;;;;;;;3.6;3.5;;;;;;;-1.1;100.0;103660;;;;
2023/02/08 00:22:00;;;;;;;3.6;3.5;;;;;;;-1.1;100.0;103660;;;;
2023/02/08 00:23:00;;;;;;;3.6;3.5;;;;;;;-1.1;100.0;103660;;;;
2023/02/08 00:24:00;;;;;;;3.6;3.5;;;;;;;-1.1;100.0;103660;;;;
2023/02/08 00:25:00;;;;;;;3.6;3.5;;;;;;;-1.0;100.0;103660;;;;
2023/02/08 00:26:00;;;;;;;3.6;3.5;;;;;;;-1.0;100.0;103660;;;;
2023/02/08 00:27:00;;;;;;;3.6;3.5;;;;;;;-1.0;100.0;103660;;;;
2023/02/08 00:28:03;;;;;;;3.6;3.5;;;;;;;-1.0;100.0;103660;;;;
2023/02/08 00:29:00;;;;;;;3.6;3.5;;;;;;;-1.0;100.0;103660;;;;
2023/02/08 00:30:00;;;;;;;3.6;3.5;;;;;;;-1.0;100.0;103660;;;;
2023/02/08 00:31:00;;;;;;;3.6;3.5;;;;;;;-1.0;100.0;103660;;;;
2023/02/08 00:32:00;;;;;;;3.6;3.5;;;;;;;-1.0;100.0;103660;;;;
2023/02/08 00:33:01;;;;;;;3.6;3.5;;;;;;;-1.0;100.0;103660;;;;
2023/02/08 00:34:00;;;;;;;4.2;4.1;;;;;;;-1.0;100.0;103660;;;;
2023/02/08 00:35:00;;;;;;;4.2;4.1;;;;;;;-1.0;100.0;103660;;;;
2023/02/08 00:36:01;;;;;;;4.2;4.1;;;;;;;-1.0;100.0;103660;;;;
2023/02/08 00:37:00;;;;;;;4.2;4.1;;;;;;;-1.0;100.0;103650;;;;
2023/02/08 00:38:00;;;;;;;4.2;4.1;;;;;;;-1.0;100.0;103650;;;;
2023/02/08 00:39:00;;;;;;;4.2;4.1;;;;;;;-1.1;100.0;103650;;;;
2023/02/08 00:40:01;;;;;;;4.2;4.1;;;;;;;-1.1;100.0;103650;;;;
2023/02/08 00:41:00;;;;;;;4.2;4.1;;;;;;;-1.1;100.0;103650;;;;
2023/02/08 00:42:00;;;;;;;4.2;4.1;;;;;;;-1.1;100.0;103650;;;;
2023/02/08 00:43:01;;;;;;;4.2;4.1;;;;;;;-1.2;100.0;103660;;;;
2023/02/08 00:44:00;;;;;;;4.2;4.1;;;;;;;-1.2;100.0;103660;;;;
2023/02/08 00:45:00;;;;;;;4.2;4.1;;;;;;;-1.2;100.0;103650;;;;
2023/02/08 00:46:00;;;;;;;4.2;4.1;;;;;;;-1.2;100.0;103650;;;;
2023/02/08 00:47:00;;;;;;;4.2;4.1;;;;;;;-1.2;100.0;103660;;;;
2023/02/08 00:48:00;;;;;;;4.2;4.1;;;;;;;-1.2;100.0;103660;;;;
2023/02/08 00:49:00;;;;;;;4.2;4.1;;;;;;;-1.1;100.0;103650;;;;
2023/02/08 00:50:00;;;;;;;4.2;4.1;;;;;;;-1.1;100.0;103650;;;;
2023/02/08 00:51:02;;;;;;;4.2;4.1;;;;;;;-1.1;100.0;103650;;;;
2023/02/08 00:52:00;;;;;;;4.2;4.1;;;;;;;-1.1;100.0;103650;;;;
2023/02/08 00:53:00;;;;;;;4.2;4.1;;;;;;;-1.2;100.0;103660;;;;
2023/02/08 00:54:00;;;;;;;3.8;3.7;;;;;;;-1.2;100.0;103660;;;;
2023/02/08 00:55:00;;;;;;;3.8;3.7;;;;;;;-1.1;100.0;103650;;;;
2023/02/08 00:56:00;;;;;;;3.8;3.7;;;;;;;-1.1;100.0;103650;;;;
2023/02/08 00:57:00;;;;;;;3.8;3.7;;;;;;;-1.1;100.0;103650;;;;
2023/02/08 00:58:00;;;;;;;3.8;3.7;;;;;;;-1.1;100.0;103650;;;;
2023/02/08 00:59:00;;;;;;;3.8;3.7;;;;;;;-1.1;100.0;103650;;;;
2023/02/08 01:00:01;;;;;;;3.8;3.7;;;;;;;-1.1;100.0;103650;;;;
2023/02/08 01:01:01;;;;;;;3.8;3.7;;;;;;;-1.2;100.0;103640;;;;
2023/02/08 01:02:00;;;;;;;3.8;3.7;;;;;;;-1.2;100.0;103640;;;;
2023/02/08 01:03:01;;;;;;;3.8;3.7;;;;;;;-1.2;100.0;103650;;;;
2023/02/08 01:04:00;;;;;;;3.8;3.7;;;;;;;-1.2;100.0;103650;;;;
2023/02/08 01:05:00;;;;;;;3.8;3.7;;;;;;;-1.2;100.0;103650;;;;
2023/02/08 01:06:01;;;;;;;3.8;3.7;;;;;;;-1.2;100.0;103650;;;;
2023/02/08 01:07:00;;;;;;;3.8;3.7;;;;;;;-1.2;100.0;103640;;;;
2023/02/08 01:08:01;;;;;;;3.8;3.7;;;;;;;-1.2;100.0;103640;;;;
2023/02/08 01:09:00;;;;;;;3.8;3.7;;;;;;;-1.2;100.0;103650;;;;
2023/02/08 01:10:00;;;;;;;3.8;3.7;;;;;;;-1.2;100.0;103650;;;;
2023/02/08 01:11:02;;;;;;;3.8;3.7;;;;;;;-1.2;100.0;103650;;;;
2023/02/08 01:12:00;;;;;;;3.8;3.7;;;;;;;-1.2;100.0;103650;;;;
2023/02/08 01:13:00;;;;;;;3.8;3.7;;;;;;;-1.3;100.0;103650;;;;
2023/02/08 01:14:00;;;;;;;3.9;3.8;;;;;;;-1.3;100.0;103650;;;;
2023/02/08 01:15:00;;;;;;;3.9;3.8;;;;;;;-1.2;100.0;103650;;;;
2023/02/08 01:16:08;;;;;;;3.9;3.8;;;;;;;-1.2;100.0;103650;;;;
2023/02/08 01:17:00;;;;;;;3.9;3.8;;;;;;;-1.3;100.0;103640;;;;
2023/02/08 01:18:00;;;;;;;3.9;3.8;;;;;;;-1.3;100.0;103640;;;;
2023/02/08 01:19:01;;;;;;;3.9;3.8;;;;;;;-1.3;100.0;103650;;;;
2023/02/08 01:20:00;;;;;;;3.9;3.8;;;;;;;-1.3;100.0;103650;;;;
2023/02/08 01:21:04;;;;;;;3.9;3.8;;;;;;;-1.4;100.0;103650;;;;
2023/02/08 01:22:00;;;;;;;3.9;3.8;;;;;;;-1.4;100.0;103650;;;;
2023/02/08 01:23:01;;;;;;;3.9;3.8;;;;;;;-1.4;100.0;103640;;;;
2023/02/08 01:24:00;;;;;;;3.9;3.8;;;;;;;-1.4;100.0;103640;;;;
2023/02/08 01:25:00;;;;;;;3.9;3.8;;;;;;;-1.4;100.0;103640;;;;
2023/02/08 01:26:00;;;;;;;3.9;3.8;;;;;;;-1.4;100.0;103640;;;;
2023/02/08 01:27:00;;;;;;;3.9;3.8;;;;;;;-1.4;100.0;103640;;;;
2023/02/08 01:28:00;;;;;;;3.9;3.8;;;;;;;-1.4;100.0;103640;;;;
2023/02/08 01:29:00;;;;;;;3.9;3.8;;;;;;;-1.4;100.0;103640;;;;
2023/02/08 01:30:00;;;;;;;3.9;3.8;;;;;;;-1.4;100.0;103640;;;;
2023/02/08 01:31:05;;;;;;;3.9;3.8;;;;;;;-1.4;100.0;103640;;;;
2023/02/08 01:32:00;;;;;;;3.9;3.8;;;;;;;-1.4;100.0;103640;;;;
2023/02/08 01:33:00;;;;;;;3.9;3.8;;;;;;;-1.5;100.0;103630;;;;
2023/02/08 01:34:01;;;;;;;5.2;5.0;;;;;;;-1.5;100.0;103630;;;;
2023/02/08 01:35:00;;;;;;;5.2;5.0;;;;;;;-1.5;100.0;103630;;;;
2023/02/08 01:36:00;;;;;;;5.2;5.0;;;;;;;-1.5;100.0;103630;;;;
2023/02/08 01:37:00;;;;;;;5.2;5.0;;;;;;;-1.6;100.0;103630;;;;
2023/02/08 01:38:00;;;;;;;5.2;5.0;;;;;;;-1.6;100.0;103630;;;;
2023/02/08 01:39:01;;;;;;;5.2;5.0;;;;;;;-1.5;100.0;103630;;;;
2023/02/08 01:40:00;;;;;;;5.2;5.0;;;;;;;-1.5;100.0;103630;;;;
2023/02/08 01:41:01;;;;;;;5.2;5.0;;;;;;;-1.6;100.0;103640;;;;
2023/02/08 01:42:00;;;;;;;5.2;5.0;;;;;;;-1.6;100.0;103640;;;;
2023/02/08 01:43:00;;;;;;;5.2;5.0;;;;;;;-1.7;100.0;103630;;;;
2023/02/08 01:44:05;;;;;;;5.2;5.0;;;;;;;-1.7;100.0;103630;;;;
2023/02/08 01:45:10;;;;;;;5.2;5.0;;;;;;;-1.8;100.0;103640;;;;
2023/02/08 01:46:00;;;;;;;5.2;5.0;;;;;;;-1.8;100.0;103640;;;;
2023/02/08 01:47:00;;;;;;;5.2;5.0;;;;;;;-1.7;100.0;103640;;;;
2023/02/08 01:48:03;;;;;;;5.2;5.0;;;;;;;-1.7;100.0;103640;;;;
2023/02/08 01:49:03;;;;;;;5.2;5.0;;;;;;;-1.7;100.0;103650;;;;
2023/02/08 01:50:00;;;;;;;5.2;5.0;;;;;;;-1.7;100.0;103650;;;;
2023/02/08 01:51:06;;;;;;;5.2;5.0;;;;;;;-1.6;100.0;103650;;;;
2023/02/08 01:52:03;;;;;;;5.2;5.0;;;;;;;-1.6;100.0;103650;;;;
2023/02/08 01:53:01;;;;;;;4.1;4.0;;;;;;;-1.7;100.0;103640;;;;
2023/02/08 01:54:02;;;;;;;4.1;4.0;;;;;;;-1.7;100.0;103640;;;;
2023/02/08 01:55:04;;;;;;;4.1;4.0;;;;;;;-1.7;100.0;103640;;;;
2023/02/08 01:56:03;;;;;;;4.1;4.0;;;;;;;-1.7;100.0;103640;;;;
2023/02/08 01:57:00;;;;;;;4.1;4.0;;;;;;;-1.7;100.0;103640;;;;
2023/02/08 01:58:02;;;;;;;4.1;4.0;;;;;;;-1.7;100.0;103640;;;;
2023/02/08 01:59:02;;;;;;;4.1;4.0;;;;;;;-1.7;100.0;103640;;;;
2023/02/08 02:00:03;;;;;;;4.1;4.0;;;;;;;-1.7;100.0;103640;;;;
2023/02/08 02:01:02;;;;;;;4.1;4.0;;;;;;;-1.7;100.0;103640;;;;
2023/02/08 02:02:01;;;;;;;4.1;4.0;;;;;;;-1.7;100.0;103640;;;;
2023/02/08 02:03:01;;;;;;;4.1;4.0;;;;;;;-1.7;100.0;103630;;;;
2023/02/08 02:04:02;;;;;;;4.1;4.0;;;;;;;-1.7;100.0;103630;;;;
2023/02/08 02:05:00;;;;;;;4.1;4.0;;;;;;;-1.7;100.0;103630;;;;
2023/02/08 02:06:02;;;;;;;4.1;4.0;;;;;;;-1.7;100.0;103630;;;;
2023/02/08 02:07:03;;;;;;;4.1;4.0;;;;;;;-1.7;100.0;103630;;;;
2023/02/08 02:08:00;;;;;;;4.1;4.0;;;;;;;-1.7;100.0;103630;;;;
2023/02/08 02:09:10;;;;;;;4.1;4.0;;;;;;;-1.7;100.0;103630;;;;
2023/02/08 02:10:04;;;;;;;4.1;4.0;;;;;;;-1.7;100.0;103630;;;;
2023/02/08 02:11:00;;;;;;;4.1;4.0;;;;;;;-1.8;100.0;103630;;;;
2023/02/08 02:12:01;;;;;;;4.1;4.0;;;;;;;-1.8;100.0;103630;;;;
2023/02/08 02:13:02;;;;;;;4.9;4.8;;;;;;;-1.7;100.0;103640;;;;
2023/02/08 02:14:01;;;;;;;4.9;4.8;;;;;;;-1.7;100.0;103640;;;;
2023/02/08 02:15:00;;;;;;;4.9;4.8;;;;;;;-1.8;100.0;103630;;;;
2023/02/08 02:16:00;;;;;;;4.9;4.8;;;;;;;-1.8;100.0;103630;;;;
2023/02/08 02:17:00;;;;;;;4.9;4.8;;;;;;;-1.8;100.0;103630;;;;
2023/02/08 02:18:01;;;;;;;4.9;4.8;;;;;;;-1.8;100.0;103630;;;;
2023/02/08 02:19:00;;;;;;;4.9;4.8;;;;;;;-1.7;100.0;103630;;;;
2023/02/08 02:20:04;;;;;;;4.9;4.8;;;;;;;-1.7;100.0;103630;;;;
2023/02/08 02:21:00;;;;;;;4.9;4.8;;;;;;;-1.8;100.0;103630;;;;
2023/02/08 02:22:10;;;;;;;4.9;4.8;;;;;;;-1.8;100.0;103630;;;;
2023/02/08 02:23:12;;;;;;;4.9;4.8;;;;;;;-1.8;100.0;103630;;;;
2023/02/08 02:24:10;;;;;;;4.9;4.8;;;;;;;-1.8;100.0;103630;;;;
2023/02/08 02:25:10;;;;;;;4.9;4.8;;;;;;;-1.8;100.0;103630;;;;
2023/02/08 02:26:10;;;;;;;4.9;4.8;;;;;;;-1.8;100.0;103630;;;;
2023/02/08 02:27:08;;;;;;;4.9;4.8;;;;;;;-1.9;100.0;103620;;;;
2023/02/08 02:28:10;;;;;;;4.9;4.8;;;;;;;-1.9;100.0;103620;;;;
2023/02/08 02:29:10;;;;;;;4.9;4.8;;;;;;;-1.8;100.0;103620;;;;
2023/02/08 02:30:00;;;;;;;4.9;4.8;;;;;;;-1.8;100.0;103620;;;;
2023/02/08 02:31:01;;;;;;;4.9;4.8;;;;;;;-1.9;100.0;103630;;;;
2023/02/08 02:32:10;;;;;;;4.9;4.8;;;;;;;-1.9;100.0;103630;;;;
2023/02/08 02:33:10;;;;;;;4.5;4.3;;;;;;;-1.9;100.0;103620;;;;
2023/02/08 02:34:00;;;;;;;4.5;4.3;;;;;;;-1.9;100.0;103620;;;;
2023/02/08 02:35:10;;;;;;;4.5;4.3;;;;;;;-1.9;100.0;103620;;;;
2023/02/08 02:36:04;;;;;;;4.5;4.3;;;;;;;-1.9;100.0;103620;;;;
2023/02/08 02:37:05;;;;;;;4.5;4.3;;;;;;;-2.0;100.0;103620;;;;
2023/02/08 02:38:11;;;;;;;4.5;4.3;;;;;;;-2.0;100.0;103620;;;;
2023/02/08 02:39:09;;;;;;;4.5;4.3;;;;;;;-1.9;100.0;103620;;;;
2023/02/08 02:40:00;;;;;;;4.5;4.3;;;;;;;-1.9;100.0;103620;;;;
2023/02/08 02:41:10;;;;;;;4.5;4.3;;;;;;;-2.0;100.0;103620;;;;
2023/02/08 02:44:01;;;;;;;4.5;4.3;;;;;;;-2.0;100.0;103620;;;;
2023/02/08 02:45:05;;;;;;;4.5;4.3;;;;;;;-2.0;100.0;103620;;;;
2023/02/08 02:46:01;;;;;;;4.5;4.3;;;;;;;-2.0;100.0;103620;;;;
2023/02/08 02:47:07;;;;;;;4.5;4.3;;;;;;;-2.0;100.0;103620;;;;
2023/02/08 02:48:04;;;;;;;4.5;4.3;;;;;;;-2.0;100.0;103620;;;;
2023/02/08 02:49:10;;;;;;;4.5;4.3;;;;;;;-2.0;100.0;103620;;;;
2023/02/08 02:50:04;;;;;;;4.5;4.3;;;;;;;-2.0;100.0;103620;;;;
2023/02/08 02:51:07;;;;;;;4.5;4.3;;;;;;;-2.0;100.0;103620;;;;
2023/02/08 02:52:01;;;;;;;4.5;4.3;;;;;;;-2.0;100.0;103620;;;;
2023/02/08 02:53:06;;;;;;;4.4;4.3;;;;;;;-2.0;100.0;103620;;;;
2023/02/08 02:54:08;;;;;;;4.4;4.3;;;;;;;-2.0;100.0;103620;;;;
2023/02/08 02:55:05;;;;;;;4.4;4.3;;;;;;;-2.1;100.0;103620;;;;
2023/02/08 02:56:05;;;;;;;4.4;4.3;;;;;;;-2.1;100.0;103620;;;;
2023/02/08 02:57:04;;;;;;;4.4;4.3;;;;;;;-2.1;100.0;103620;;;;
2023/02/08 02:58:01;;;;;;;4.4;4.3;;;;;;;-2.1;100.0;103620;;;;
2023/02/08 02:59:03;;;;;;;4.4;4.3;;;;;;;-2.1;100.0;103620;;;;
2023/02/08 03:00:05;;;;;;;4.4;4.3;;;;;;;-2.1;100.0;103620;;;;
2023/02/08 03:01:00;;;;;;;4.4;4.3;;;;;;;-2.1;100.0;103620;;;;
2023/02/08 03:02:00;;;;;;;4.4;4.3;;;;;;;-2.1;100.0;103620;;;;
2023/02/08 03:03:00;;;;;;;4.4;4.3;;;;;;;-2.2;100.0;103620;;;;
2023/02/08 03:04:10;;;;;;;4.4;4.3;;;;;;;-2.2;100.0;103620;;;;
2023/02/08 03:05:00;;;;;;;4.4;4.3;;;;;;;-2.2;100.0;103620;;;;
2023/02/08 03:06:03;;;;;;;4.4;4.3;;;;;;;-2.2;100.0;103620;;;;
2023/02/08 03:07:01;;;;;;;4.4;4.3;;;;;;;-2.1;100.0;103610;;;;
2023/02/08 03:08:08;;;;;;;4.4;4.3;;;;;;;-2.1;100.0;103610;;;;
2023/02/08 03:09:10;;;;;;;4.4;4.3;;;;;;;-2.2;100.0;103610;;;;
2023/02/08 03:10:10;;;;;;;4.4;4.3;;;;;;;-2.2;100.0;103610;;;;
2023/02/08 03:11:08;;;;;;;4.4;4.3;;;;;;;-2.3;100.0;103610;;;;
2023/02/08 03:12:10;;;;;;;4.4;4.3;;;;;;;-2.3;100.0;103610;;;;
2023/02/08 03:13:01;;;;;;;4.4;4.3;;;;;;;-2.2;100.0;103610;;;;
2023/02/08 03:14:03;;;;;;;4.4;4.3;;;;;;;-2.2;100.0;103610;;;;
2023/02/08 03:15:00;;;;;;;4.4;4.3;;;;;;;-2.2;100.0;103610;;;;
2023/02/08 03:16:10;;;;;;;4.4;4.3;;;;;;;-2.2;100.0;103610;;;;
2023/02/08 03:17:10;;;;;;;4.4;4.3;;;;;;;-2.2;100.0;103610;;;;
2023/02/08 03:18:00;;;;;;;4.4;4.3;;;;;;;-2.2;100.0;103610;;;;
2023/02/08 03:19:06;;;;;;;4.4;4.3;;;;;;;-2.2;100.0;103610;;;;
2023/02/08 03:20:03;;;;;;;4.4;4.3;;;;;;;-2.2;100.0;103610;;;;
2023/02/08 03:21:01;;;;;;;4.4;4.3;;;;;;;-2.3;100.0;103610;;;;
2023/02/08 03:22:00;;;;;;;4.4;4.3;;;;;;;-2.3;100.0;103610;;;;
2023/02/08 03:23:08;;;;;;;4.4;4.3;;;;;;;-2.2;100.0;103610;;;;
2023/02/08 03:24:10;;;;;;;4.4;4.3;;;;;;;-2.2;100.0;103610;;;;
2023/02/08 03:25:04;;;;;;;4.4;4.3;;;;;;;-2.1;100.0;103610;;;;
2023/02/08 03:26:04;;;;;;;4.4;4.3;;;;;;;-2.1;100.0;103610;;;;
2023/02/08 03:27:05;;;;;;;4.4;4.3;;;;;;;-2.1;100.0;103610;;;;
2023/02/08 03:28:04;;;;;;;4.4;4.3;;;;;;;-2.1;100.0;103610;;;;
2023/02/08 03:29:07;;;;;;;4.4;4.3;;;;;;;-2.2;100.0;103610;;;;
2023/02/08 03:30:10;;;;;;;4.4;4.3;;;;;;;-2.2;100.0;103610;;;;
2023/02/08 03:31:04;;;;;;;4.4;4.3;;;;;;;-2.2;100.0;103610;;;;
2023/02/08 03:32:05;;;;;;;4.4;4.3;;;;;;;-2.2;100.0;103610;;;;
2023/02/08 03:33:05;;;;;;;4.6;4.5;;;;;;;-2.1;100.0;103610;;;;
2023/02/08 03:34:06;;;;;;;4.6;4.5;;;;;;;-2.1;100.0;103610;;;;
2023/02/08 03:35:03;;;;;;;4.6;4.5;;;;;;;-2.2;100.0;103610;;;;
2023/02/08 03:36:05;;;;;;;4.6;4.5;;;;;;;-2.2;100.0;103610;;;;
2023/02/08 03:37:03;;;;;;;4.6;4.5;;;;;;;-2.2;100.0;103610;;;;
2023/02/08 03:38:03;;;;;;;4.6;4.5;;;;;;;-2.2;100.0;103610;;;;
2023/02/08 03:39:03;;;;;;;4.6;4.5;;;;;;;-2.2;100.0;103600;;;;
2023/02/08 03:40:03;;;;;;;4.6;4.5;;;;;;;-2.2;100.0;103600;;;;
2023/02/08 03:41:02;;;;;;;4.6;4.5;;;;;;;-2.2;100.0;103610;;;;
2023/02/08 03:42:03;;;;;;;4.6;4.5;;;;;;;-2.2;100.0;103610;;;;
2023/02/08 03:43:04;;;;;;;4.6;4.5;;;;;;;-2.2;100.0;103610;;;;
2023/02/08 03:44:00;;;;;;;4.6;4.5;;;;;;;-2.2;100.0;103610;;;;
2023/02/08 03:45:04;;;;;;;4.6;4.5;;;;;;;-2.2;100.0;103610;;;;
2023/02/08 03:46:01;;;;;;;4.6;4.5;;;;;;;-2.2;100.0;103610;;;;
2023/02/08 03:47:04;;;;;;;4.6;4.5;;;;;;;-2.2;100.0;103610;;;;
2023/02/08 03:48:03;;;;;;;4.6;4.5;;;;;;;-2.2;100.0;103610;;;;
2023/02/08 03:49:04;;;;;;;4.6;4.5;;;;;;;-2.1;100.0;103600;;;;
2023/02/08 03:50:03;;;;;;;4.6;4.5;;;;;;;-2.1;100.0;103600;;;;
2023/02/08 03:51:01;;;;;;;4.6;4.5;;;;;;;-2.2;100.0;103610;;;;
2023/02/08 03:52:02;;;;;;;4.6;4.5;;;;;;;-2.2;100.0;103610;;;;
2023/02/08 03:53:01;;;;;;;4.1;4.0;;;;;;;-2.2;100.0;103600;;;;
2023/02/08 03:54:02;;;;;;;4.1;4.0;;;;;;;-2.2;100.0;103600;;;;
2023/02/08 03:55:02;;;;;;;4.1;4.0;;;;;;;-2.1;100.0;103610;;;;
2023/02/08 03:56:03;;;;;;;4.1;4.0;;;;;;;-2.1;100.0;103610;;;;
2023/02/08 03:57:05;;;;;;;4.1;4.0;;;;;;;-2.2;100.0;103610;;;;
2023/02/08 03:58:10;;;;;;;4.1;4.0;;;;;;;-2.2;100.0;103610;;;;
2023/02/08 03:59:02;;;;;;;4.1;4.0;;;;;;;-2.2;100.0;103610;;;;
2023/02/08 04:00:06;;;;;;;4.1;4.0;;;;;;;-2.2;100.0;103610;;;;
2023/02/08 04:01:10;;;;;;;4.1;4.0;;;;;;;-2.3;100.0;103610;;;;
2023/02/08 04:02:01;;;;;;;4.1;4.0;;;;;;;-2.3;100.0;103610;;;;
2023/02/08 04:03:07;;;;;;;4.1;4.0;;;;;;;-2.3;100.0;103610;;;;
2023/02/08 04:04:00;;;;;;;4.1;4.0;;;;;;;-2.3;100.0;103610;;;;
2023/02/08 04:05:00;;;;;;;4.1;4.0;;;;;;;-2.3;100.0;103610;;;;
2023/02/08 04:06:00;;;;;;;4.1;4.0;;;;;;;-2.3;100.0;103610;;;;
2023/02/08 04:07:01;;;;;;;4.1;4.0;;;;;;;-2.3;100.0;103610;;;;
2023/02/08 04:08:00;;;;;;;4.1;4.0;;;;;;;-2.3;100.0;103610;;;;
2023/02/08 04:09:00;;;;;;;4.1;4.0;;;;;;;-2.3;100.0;103610;;;;
2023/02/08 04:10:01;;;;;;;4.1;4.0;;;;;;;-2.3;100.0;103610;;;;
2023/02/08 04:11:00;;;;;;;4.1;4.0;;;;;;;-2.2;100.0;103610;;;;
2023/02/08 04:12:00;;;;;;;4.1;4.0;;;;;;;-2.2;100.0;103610;;;;
2023/02/08 04:13:00;;;;;;;4.7;4.6;;;;;;;-2.2;100.0;103610;;;;
2023/02/08 04:14:00;;;;;;;4.7;4.6;;;;;;;-2.2;100.0;103610;;;;
2023/02/08 04:15:00;;;;;;;4.7;4.6;;;;;;;-2.2;100.0;103610;;;;
2023/02/08 04:16:00;;;;;;;4.7;4.6;;;;;;;-2.2;100.0;103610;;;;
2023/02/08 04:17:01;;;;;;;4.7;4.6;;;;;;;-2.2;100.0;103610;;;;
2023/02/08 04:18:00;;;;;;;4.7;4.6;;;;;;;-2.2;100.0;103610;;;;
2023/02/08 04:19:00;;;;;;;4.7;4.6;;;;;;;-2.3;100.0;103610;;;;
2023/02/08 04:20:00;;;;;;;4.7;4.6;;;;;;;-2.3;100.0;103610;;;;
2023/02/08 04:21:00;;;;;;;4.7;4.6;;;;;;;-2.3;100.0;103610;;;;
2023/02/08 04:22:00;;;;;;;4.7;4.6;;;;;;;-2.3;100.0;103610;;;;
2023/02/08 04:23:00;;;;;;;4.7;4.6;;;;;;;-2.3;100.0;103610;;;;
2023/02/08 04:24:00;;;;;;;4.7;4.6;;;;;;;-2.3;100.0;103610;;;;
2023/02/08 04:25:00;;;;;;;4.7;4.6;;;;;;;-2.4;100.0;103610;;;;
2023/02/08 04:26:00;;;;;;;4.7;4.6;;;;;;;-2.4;100.0;103610;;;;
2023/02/08 04:27:00;;;;;;;4.7;4.6;;;;;;;-2.4;100.0;103610;;;;
2023/02/08 04:28:00;;;;;;;4.7;4.6;;;;;;;-2.4;100.0;103610;;;;
2023/02/08 04:29:00;;;;;;;4.7;4.6;;;;;;;-2.4;100.0;103610;;;;
2023/02/08 04:30:00;;;;;;;4.7;4.6;;;;;;;-2.4;100.0;103610;;;;
2023/02/08 04:31:00;;;;;;;4.7;4.6;;;;;;;-2.3;100.0;103620;;;;
2023/02/08 04:32:01;;;;;;;4.7;4.6;;;;;;;-2.3;100.0;103620;;;;
2023/02/08 04:33:00;;;;;;;4.7;4.6;;;;;;;-2.3;100.0;103620;;;;
2023/02/08 04:34:01;;;;;;;4.7;4.6;;;;;;;-2.3;100.0;103620;;;;
2023/02/08 04:35:00;;;;;;;4.7;4.6;;;;;;;-2.4;100.0;103610;;;;
2023/02/08 04:36:00;;;;;;;4.7;4.6;;;;;;;-2.4;100.0;103610;;;;
2023/02/08 04:37:00;;;;;;;4.7;4.6;;;;;;;-2.5;100.0;103610;;;;
2023/02/08 04:38:00;;;;;;;4.7;4.6;;;;;;;-2.5;100.0;103610;;;;
2023/02/08 04:39:00;;;;;;;4.7;4.6;;;;;;;-2.5;100.0;103610;;;;
2023/02/08 04:40:00;;;;;;;4.7;4.6;;;;;;;-2.5;100.0;103610;;;;
2023/02/08 04:41:00;;;;;;;4.7;4.6;;;;;;;-2.4;100.0;103620;;;;
2023/02/08 04:42:03;;;;;;;4.7;4.6;;;;;;;-2.4;100.0;103620;;;;
2023/02/08 04:43:01;;;;;;;4.7;4.6;;;;;;;-2.5;100.0;103620;;;;
2023/02/08 04:44:00;;;;;;;4.7;4.6;;;;;;;-2.5;100.0;103620;;;;
2023/02/08 04:45:00;;;;;;;4.7;4.6;;;;;;;-2.5;100.0;103620;;;;
2023/02/08 04:46:00;;;;;;;4.7;4.6;;;;;;;-2.5;100.0;103620;;;;
2023/02/08 04:47:00;;;;;;;4.7;4.6;;;;;;;-2.5;100.0;103620;;;;
2023/02/08 04:48:00;;;;;;;4.7;4.6;;;;;;;-2.5;100.0;103620;;;;
2023/02/08 04:49:00;;;;;;;4.7;4.6;;;;;;;-2.5;100.0;103620;;;;
2023/02/08 04:50:00;;;;;;;4.7;4.6;;;;;;;-2.5;100.0;103620;;;;
2023/02/08 04:51:00;;;;;;;4.7;4.6;;;;;;;-2.5;100.0;103620;;;;
2023/02/08 04:52:00;;;;;;;4.7;4.6;;;;;;;-2.5;100.0;103620;;;;
2023/02/08 04:53:00;;;;;;;4.7;4.6;;;;;;;-2.5;100.0;103620;;;;
2023/02/08 04:54:00;;;;;;;4.7;4.6;;;;;;;-2.5;100.0;103620;;;;
2023/02/08 04:55:00;;;;;;;4.7;4.6;;;;;;;-2.5;100.0;103620;;;;
2023/02/08 04:56:00;;;;;;;4.7;4.6;;;;;;;-2.5;100.0;103620;;;;
2023/02/08 04:57:00;;;;;;;4.7;4.6;;;;;;;-2.5;100.0;103620;;;;
2023/02/08 04:58:00;;;;;;;4.7;4.6;;;;;;;-2.5;100.0;103620;;;;
2023/02/08 04:59:00;;;;;;;4.7;4.6;;;;;;;-2.6;100.0;103620;;;;
2023/02/08 05:00:01;;;;;;;4.7;4.6;;;;;;;-2.6;100.0;103620;;;;
2023/02/08 05:01:00;;;;;;;4.7;4.6;;;;;;;-2.6;100.0;103620;;;;
2023/02/08 05:02:00;;;;;;;4.7;4.6;;;;;;;-2.6;100.0;103620;;;;
2023/02/08 05:03:00;;;;;;;4.7;4.6;;;;;;;-2.6;100.0;103620;;;;
2023/02/08 05:04:00;;;;;;;4.7;4.6;;;;;;;-2.6;100.0;103620;;;;
2023/02/08 05:05:00;;;;;;;4.7;4.6;;;;;;;-2.6;100.0;103620;;;;
2023/02/08 05:06:00;;;;;;;4.7;4.6;;;;;;;-2.6;100.0;103620;;;;
2023/02/08 05:07:00;;;;;;;4.7;4.6;;;;;;;-2.6;100.0;103610;;;;
2023/02/08 05:08:01;;;;;;;4.7;4.6;;;;;;;-2.6;100.0;103610;;;;
2023/02/08 05:09:00;;;;;;;4.7;4.6;;;;;;;-2.6;100.0;103620;;;;
2023/02/08 05:10:00;;;;;;;4.7;4.6;;;;;;;-2.6;100.0;103620;;;;
2023/02/08 05:11:00;;;;;;;4.7;4.6;;;;;;;-2.6;100.0;103610;;;;
2023/02/08 05:12:00;;;;;;;4.8;4.7;;;;;;;-2.6;100.0;103610;;;;
2023/02/08 05:13:00;;;;;;;4.8;4.7;;;;;;;-2.6;100.0;103620;;;;
2023/02/08 05:14:01;;;;;;;4.8;4.7;;;;;;;-2.6;100.0;103620;;;;
2023/02/08 05:15:00;;;;;;;4.8;4.7;;;;;;;-2.6;100.0;103620;;;;
2023/02/08 05:16:01;;;;;;;4.8;4.7;;;;;;;-2.6;100.0;103620;;;;
2023/02/08 05:17:00;;;;;;;4.8;4.7;;;;;;;-2.6;100.0;103620;;;;
2023/02/08 05:18:00;;;;;;;4.8;4.7;;;;;;;-2.6;100.0;103620;;;;
2023/02/08 05:19:00;;;;;;;4.8;4.7;;;;;;;-2.6;100.0;103620;;;;
2023/02/08 05:20:00;;;;;;;4.8;4.7;;;;;;;-2.6;100.0;103620;;;;
2023/02/08 05:21:00;;;;;;;4.8;4.7;;;;;;;-2.7;100.0;103620;;;;
2023/02/08 05:22:00;;;;;;;4.8;4.7;;;;;;;-2.7;100.0;103620;;;;
2023/02/08 05:23:00;;;;;;;4.8;4.7;;;;;;;-2.7;100.0;103610;;;;
2023/02/08 05:24:00;;;;;;;4.8;4.7;;;;;;;-2.7;100.0;103610;;;;
2023/02/08 05:25:01;;;;;;;4.8;4.7;;;;;;;-2.7;100.0;103620;;;;
2023/02/08 05:26:04;;;;;;;4.8;4.7;;;;;;;-2.7;100.0;103620;;;;
2023/02/08 05:27:00;;;;;;;4.8;4.7;;;;;;;-2.7;100.0;103620;;;;
2023/02/08 05:28:00;;;;;;;4.8;4.7;;;;;;;-2.7;100.0;103620;;;;
2023/02/08 05:29:00;;;;;;;4.8;4.7;;;;;;;-2.7;100.0;103610;;;;
2023/02/08 05:30:01;;;;;;;4.8;4.7;;;;;;;-2.7;100.0;103610;;;;
2023/02/08 05:31:10;;;;;;;4.8;4.7;;;;;;;-2.7;100.0;103610;;;;
2023/02/08 05:32:00;;;;;;;4.8;4.7;;;;;;;-2.7;100.0;103610;;;;
2023/02/08 05:33:00;;;;;;;4.8;4.7;;;;;;;-2.6;100.0;103610;;;;
2023/02/08 05:34:00;;;;;;;4.8;4.7;;;;;;;-2.6;100.0;103610;;;;
2023/02/08 05:35:00;;;;;;;4.8;4.7;;;;;;;-2.7;100.0;103610;;;;
2023/02/08 05:36:00;;;;;;;4.8;4.7;;;;;;;-2.7;100.0;103610;;;;
2023/02/08 05:37:00;;;;;;;4.8;4.7;;;;;;;-2.7;100.0;103610;;;;
2023/02/08 05:38:00;;;;;;;4.8;4.7;;;;;;;-2.7;100.0;103610;;;;
2023/02/08 05:39:00;;;;;;;4.8;4.7;;;;;;;-2.7;100.0;103610;;;;
2023/02/08 05:40:00;;;;;;;4.8;4.7;;;;;;;-2.7;100.0;103610;;;;
2023/02/08 05:41:00;;;;;;;4.8;4.7;;;;;;;-2.7;100.0;103610;;;;
2023/02/08 05:42:00;;;;;;;4.8;4.7;;;;;;;-2.7;100.0;103610;;;;
2023/02/08 05:43:00;;;;;;;4.8;4.7;;;;;;;-2.6;100.0;103610;;;;
2023/02/08 05:44:00;;;;;;;4.8;4.7;;;;;;;-2.6;100.0;103610;;;;
2023/02/08 05:45:00;;;;;;;4.8;4.7;;;;;;;-2.6;100.0;103600;;;;
2023/02/08 05:46:00;;;;;;;4.8;4.7;;;;;;;-2.6;100.0;103600;;;;
2023/02/08 05:47:00;;;;;;;4.8;4.7;;;;;;;-2.7;100.0;103600;;;;
2023/02/08 05:48:00;;;;;;;4.8;4.7;;;;;;;-2.7;100.0;103600;;;;
2023/02/08 05:49:00;;;;;;;4.8;4.7;;;;;;;-2.7;100.0;103600;;;;
2023/02/08 05:50:00;;;;;;;4.8;4.7;;;;;;;-2.7;100.0;103600;;;;
2023/02/08 05:51:00;;;;;;;4.8;4.7;;;;;;;-2.7;100.0;103600;;;;
2023/02/08 05:52:00;;;;;;;4.6;4.5;;;;;;;-2.7;100.0;103600;;;;
2023/02/08 05:53:00;;;;;;;4.6;4.5;;;;;;;-2.7;100.0;103600;;;;
2023/02/08 05:54:00;;;;;;;4.6;4.5;;;;;;;-2.7;100.0;103600;;;;
2023/02/08 05:55:00;;;;;;;4.6;4.5;;;;;;;-2.7;100.0;103600;;;;
2023/02/08 05:56:00;;;;;;;4.6;4.5;;;;;;;-2.7;100.0;103600;;;;
2023/02/08 05:57:00;;;;;;;4.6;4.5;;;;;;;-2.8;100.0;103600;;;;
2023/02/08 05:58:00;;;;;;;4.6;4.5;;;;;;;-2.8;100.0;103600;;;;
2023/02/08 05:59:01;;;;;;;4.6;4.5;;;;;;;-2.7;100.0;103600;;;;
2023/02/08 06:00:00;;;;;;;4.6;4.5;;;;;;;-2.7;100.0;103600;;;;
2023/02/08 06:01:01;;;;;;;4.6;4.5;;;;;;;-2.6;100.0;103600;;;;
2023/02/08 06:02:00;;;;;;;4.6;4.5;;;;;;;-2.6;100.0;103600;;;;
2023/02/08 06:03:00;;;;;;;4.6;4.5;;;;;;;-2.7;100.0;103600;;;;
2023/02/08 06:04:00;;;;;;;4.6;4.5;;;;;;;-2.7;100.0;103600;;;;
2023/02/08 06:05:00;;;;;;;4.6;4.5;;;;;;;-2.8;100.0;103600;;;;
2023/02/08 06:06:00;;;;;;;4.6;4.5;;;;;;;-2.8;100.0;103600;;;;
2023/02/08 06:07:00;;;;;;;4.6;4.5;;;;;;;-2.8;100.0;103600;;;;
2023/02/08 06:08:00;;;;;;;4.6;4.5;;;;;;;-2.8;100.0;103600;;;;
2023/02/08 06:09:00;;;;;;;4.6;4.5;;;;;;;-2.7;100.0;103600;;;;
2023/02/08 06:10:00;;;;;;;4.6;4.5;;;;;;;-2.7;100.0;103600;;;;
2023/02/08 06:11:00;;;;;;;4.6;4.5;;;;;;;-2.7;100.0;103600;;;;
2023/02/08 06:12:00;;;;;;;4.4;4.3;;;;;;;-2.7;100.0;103600;;;;
2023/02/08 06:13:00;;;;;;;4.4;4.3;;;;;;;-2.5;100.0;103600;;;;
2023/02/08 06:14:01;;;;;;;4.4;4.3;;;;;;;-2.5;100.0;103600;;;;
2023/02/08 06:15:00;;;;;;;4.4;4.3;;;;;;;-2.8;100.0;103600;;;;
2023/02/08 06:16:00;;;;;;;4.4;4.3;;;;;;;-2.8;100.0;103600;;;;
2023/02/08 06:17:00;;;;;;;4.4;4.3;;;;;;;-2.7;100.0;103600;;;;
2023/02/08 06:18:00;;;;;;;4.4;4.3;;;;;;;-2.7;100.0;103600;;;;
2023/02/08 06:19:00;;;;;;;4.4;4.3;;;;;;;-2.8;100.0;103600;;;;
2023/02/08 06:20:00;;;;;;;4.4;4.3;;;;;;;-2.8;100.0;103600;;;;
2023/02/08 06:21:00;;;;;;;4.4;4.3;;;;;;;-2.8;100.0;103590;;;;
2023/02/08 06:22:00;;;;;;;4.4;4.3;;;;;;;-2.8;100.0;103590;;;;
2023/02/08 06:23:00;;;;;;;4.4;4.3;;;;;;;-2.7;100.0;103590;;;;
2023/02/08 06:24:02;;;;;;;4.4;4.3;;;;;;;-2.7;100.0;103590;;;;